sensor_id;sensor_type;location;lat;lon;timestamp;pressure;altitude;pressure_sealevel;temperature;humidity
77110;BME280;66062;52.464;16.922;2024-01-30T00:01:12;102136.59;;;3.09;86.20
77110;BME280;66062;52.464;16.922;2024-01-30T00:03:37;102146.78;;;3.20;85.82
77110;BME280;66062;52.464;16.922;2024-01-30T00:06:03;102138.09;;;3.16;85.91
77110;BME280;66062;52.464;16.922;2024-01-30T00:08:29;102140.16;;;3.08;85.95
77110;BME280;66062;52.464;16.922;2024-01-30T00:10:54;102142.63;;;3.13;85.89
77110;BME280;66062;52.464;16.922;2024-01-30T00:13:20;102133.97;;;3.09;85.27
77110;BME280;66062;52.464;16.922;2024-01-30T00:15:45;102140.63;;;3.19;85.24
77110;BME280;66062;52.464;16.922;2024-01-30T00:18:11;102130.72;;;3.01;86.31
77110;BME280;66062;52.464;16.922;2024-01-30T00:20:36;102133.03;;;3.10;85.50
77110;BME280;66062;52.464;16.922;2024-01-30T00:23:02;102130.63;;;3.04;85.68
77110;BME280;66062;52.464;16.922;2024-01-30T00:25:27;102135.09;;;3.02;85.79
77110;BME280;66062;52.464;16.922;2024-01-30T00:27:53;102129.13;;;2.97;85.74
77110;BME280;66062;52.464;16.922;2024-01-30T00:30:18;102131.63;;;3.00;85.44
77110;BME280;66062;52.464;16.922;2024-01-30T00:32:44;102137.16;;;2.94;85.63
77110;BME280;66062;52.464;16.922;2024-01-30T00:35:10;102133.56;;;2.95;85.43
77110;BME280;66062;52.464;16.922;2024-01-30T00:37:36;102133.38;;;3.01;85.29
77110;BME280;66062;52.464;16.922;2024-01-30T00:40:02;102133.19;;;3.06;84.58
77110;BME280;66062;52.464;16.922;2024-01-30T00:42:27;102134.06;;;3.06;84.77
77110;BME280;66062;52.464;16.922;2024-01-30T00:44:53;102140.03;;;3.11;84.58
77110;BME280;66062;52.464;16.922;2024-01-30T00:47:18;102137.56;;;3.07;84.49
77110;BME280;66062;52.464;16.922;2024-01-30T00:49:44;102132.13;;;3.11;84.34
77110;BME280;66062;52.464;16.922;2024-01-30T00:52:09;102131.53;;;3.03;84.70
77110;BME280;66062;52.464;16.922;2024-01-30T00:54:35;102139.47;;;3.03;84.63
77110;BME280;66062;52.464;16.922;2024-01-30T00:57:00;102130.19;;;2.91;85.08
77110;BME280;66062;52.464;16.922;2024-01-30T00:59:26;102136.53;;;2.86;85.23
77110;BME280;66062;52.464;16.922;2024-01-30T01:01:51;102142.50;;;2.91;85.00
77110;BME280;66062;52.464;16.922;2024-01-30T01:04:17;102136.66;;;2.83;85.12
77110;BME280;66062;52.464;16.922;2024-01-30T01:06:43;102127.19;;;2.77;85.42
77110;BME280;66062;52.464;16.922;2024-01-30T01:09:11;102136.53;;;2.86;84.93
77110;BME280;66062;52.464;16.922;2024-01-30T01:11:37;102128.63;;;2.61;86.36
77110;BME280;66062;52.464;16.922;2024-01-30T01:14:03;102133.13;;;2.57;86.56
77110;BME280;66062;52.464;16.922;2024-01-30T01:16:29;102127.72;;;2.62;86.41
77110;BME280;66062;52.464;16.922;2024-01-30T01:18:55;102130.50;;;2.57;86.41
77110;BME280;66062;52.464;16.922;2024-01-30T01:21:20;102116.34;;;2.85;85.01
77110;BME280;66062;52.464;16.922;2024-01-30T01:23:45;102120.84;;;2.83;84.83
77110;BME280;66062;52.464;16.922;2024-01-30T01:26:11;102126.84;;;2.86;84.43
77110;BME280;66062;52.464;16.922;2024-01-30T01:28:36;102118.16;;;2.84;84.41
77110;BME280;66062;52.464;16.922;2024-01-30T01:31:02;102108.22;;;2.91;84.16
77110;BME280;66062;52.464;16.922;2024-01-30T01:33:34;102115.28;;;2.90;83.89
77110;BME280;66062;52.464;16.922;2024-01-30T01:36:00;102107.50;;;2.87;84.20
77110;BME280;66062;52.464;16.922;2024-01-30T01:38:28;102116.25;;;2.88;83.79
77110;BME280;66062;52.464;16.922;2024-01-30T01:40:53;102111.09;;;2.85;83.60
77110;BME280;66062;52.464;16.922;2024-01-30T01:43:18;102116.75;;;2.74;84.35
77110;BME280;66062;52.464;16.922;2024-01-30T01:45:45;102114.94;;;2.75;84.36
77110;BME280;66062;52.464;16.922;2024-01-30T01:48:11;102121.59;;;2.86;83.77
77110;BME280;66062;52.464;16.922;2024-01-30T01:50:38;102120.03;;;2.81;83.82
77110;BME280;66062;52.464;16.922;2024-01-30T01:53:05;102125.38;;;2.79;83.86
77110;BME280;66062;52.464;16.922;2024-01-30T01:55:33;102127.72;;;2.87;83.57
77110;BME280;66062;52.464;16.922;2024-01-30T01:57:59;102123.50;;;2.81;83.21
77110;BME280;66062;52.464;16.922;2024-01-30T02:00:24;102128.13;;;2.75;83.50
77110;BME280;66062;52.464;16.922;2024-01-30T02:02:50;102126.63;;;2.68;84.48
77110;BME280;66062;52.464;16.922;2024-01-30T02:05:17;102121.38;;;2.68;84.31
77110;BME280;66062;52.464;16.922;2024-01-30T02:07:43;102118.63;;;2.71;83.65
77110;BME280;66062;52.464;16.922;2024-01-30T02:10:09;102119.00;;;2.85;83.08
77110;BME280;66062;52.464;16.922;2024-01-30T02:12:35;102117.28;;;2.84;83.33
77110;BME280;66062;52.464;16.922;2024-01-30T02:15:01;102117.34;;;2.82;82.98
77110;BME280;66062;52.464;16.922;2024-01-30T02:17:26;102115.66;;;2.80;83.46
77110;BME280;66062;52.464;16.922;2024-01-30T02:19:52;102113.88;;;2.80;83.07
77110;BME280;66062;52.464;16.922;2024-01-30T02:22:18;102116.53;;;2.80;82.64
77110;BME280;66062;52.464;16.922;2024-01-30T02:24:44;102108.59;;;2.80;82.75
77110;BME280;66062;52.464;16.922;2024-01-30T02:27:10;102106.59;;;2.88;82.30
77110;BME280;66062;52.464;16.922;2024-01-30T02:29:35;102114.00;;;2.77;82.37
77110;BME280;66062;52.464;16.922;2024-01-30T02:32:01;102115.72;;;2.78;82.63
77110;BME280;66062;52.464;16.922;2024-01-30T02:34:26;102123.25;;;2.38;84.25
77110;BME280;66062;52.464;16.922;2024-01-30T02:36:52;102112.72;;;2.38;84.11
77110;BME280;66062;52.464;16.922;2024-01-30T02:39:17;102120.78;;;2.33;85.31
77110;BME280;66062;52.464;16.922;2024-01-30T02:41:42;102108.00;;;2.47;84.38
77110;BME280;66062;52.464;16.922;2024-01-30T02:44:08;102113.19;;;2.49;84.45
77110;BME280;66062;52.464;16.922;2024-01-30T02:46:33;102109.38;;;2.59;83.70
77110;BME280;66062;52.464;16.922;2024-01-30T02:48:58;102107.44;;;2.64;83.47
77110;BME280;66062;52.464;16.922;2024-01-30T02:51:24;102109.22;;;2.64;83.31
77110;BME280;66062;52.464;16.922;2024-01-30T02:53:49;102102.31;;;2.59;83.21
77110;BME280;66062;52.464;16.922;2024-01-30T02:56:15;102097.69;;;2.66;82.69
77110;BME280;66062;52.464;16.922;2024-01-30T02:58:40;102100.16;;;2.71;82.58
77110;BME280;66062;52.464;16.922;2024-01-30T03:01:06;102106.97;;;2.78;82.46
77110;BME280;66062;52.464;16.922;2024-01-30T03:03:32;102103.28;;;2.82;81.99
77110;BME280;66062;52.464;16.922;2024-01-30T03:05:59;102098.03;;;2.82;81.28
77110;BME280;66062;52.464;16.922;2024-01-30T03:08:24;102092.53;;;2.88;81.14
77110;BME280;66062;52.464;16.922;2024-01-30T03:10:50;102095.16;;;2.88;81.23
77110;BME280;66062;52.464;16.922;2024-01-30T03:13:15;102098.47;;;2.94;80.64
77110;BME280;66062;52.464;16.922;2024-01-30T03:15:40;102085.09;;;2.99;80.24
77110;BME280;66062;52.464;16.922;2024-01-30T03:18:06;102091.28;;;2.98;80.44
77110;BME280;66062;52.464;16.922;2024-01-30T03:20:31;102094.72;;;3.00;79.88
77110;BME280;66062;52.464;16.922;2024-01-30T03:22:57;102094.50;;;3.06;79.65
77110;BME280;66062;52.464;16.922;2024-01-30T03:25:22;102089.91;;;3.11;79.69
77110;BME280;66062;52.464;16.922;2024-01-30T03:27:48;102089.13;;;3.09;79.53
77110;BME280;66062;52.464;16.922;2024-01-30T03:30:14;102078.50;;;3.11;79.62
77110;BME280;66062;52.464;16.922;2024-01-30T03:32:39;102083.72;;;3.12;79.41
77110;BME280;66062;52.464;16.922;2024-01-30T03:35:05;102091.78;;;3.09;79.73
77110;BME280;66062;52.464;16.922;2024-01-30T03:37:30;102090.91;;;3.09;79.56
77110;BME280;66062;52.464;16.922;2024-01-30T03:39:56;102076.91;;;3.07;79.51
77110;BME280;66062;52.464;16.922;2024-01-30T03:42:22;102083.16;;;3.04;79.64
77110;BME280;66062;52.464;16.922;2024-01-30T03:44:47;102073.56;;;3.01;79.86
77110;BME280;66062;52.464;16.922;2024-01-30T03:47:13;102089.34;;;3.03;79.60
77110;BME280;66062;52.464;16.922;2024-01-30T03:49:39;102082.19;;;3.07;79.37
77110;BME280;66062;52.464;16.922;2024-01-30T03:52:04;102081.53;;;3.00;79.56
77110;BME280;66062;52.464;16.922;2024-01-30T03:54:30;102079.50;;;3.08;79.73
77110;BME280;66062;52.464;16.922;2024-01-30T03:56:55;102084.84;;;3.05;80.06
77110;BME280;66062;52.464;16.922;2024-01-30T03:59:21;102085.09;;;2.99;79.94
77110;BME280;66062;52.464;16.922;2024-01-30T04:01:50;102087.63;;;3.02;80.25
77110;BME280;66062;52.464;16.922;2024-01-30T04:04:17;102090.47;;;2.96;80.19
77110;BME280;66062;52.464;16.922;2024-01-30T04:06:42;102091.63;;;2.89;80.47
77110;BME280;66062;52.464;16.922;2024-01-30T04:09:08;102092.53;;;2.88;80.69
77110;BME280;66062;52.464;16.922;2024-01-30T04:11:34;102097.81;;;2.88;80.76
77110;BME280;66062;52.464;16.922;2024-01-30T04:13:59;102099.25;;;2.96;80.73
77110;BME280;66062;52.464;16.922;2024-01-30T04:16:24;102088.75;;;2.95;80.38
77110;BME280;66062;52.464;16.922;2024-01-30T04:18:51;102087.97;;;2.93;80.50
77110;BME280;66062;52.464;16.922;2024-01-30T04:21:17;102089.09;;;2.86;81.74
77110;BME280;66062;52.464;16.922;2024-01-30T04:23:42;102099.63;;;2.86;81.12
77110;BME280;66062;52.464;16.922;2024-01-30T04:26:08;102094.16;;;2.67;82.02
77110;BME280;66062;52.464;16.922;2024-01-30T04:28:33;102089.81;;;2.65;82.20
77110;BME280;66062;52.464;16.922;2024-01-30T04:30:58;102097.50;;;2.46;83.56
77110;BME280;66062;52.464;16.922;2024-01-30T04:33:24;102097.91;;;2.60;82.56
77110;BME280;66062;52.464;16.922;2024-01-30T04:35:49;102105.06;;;2.56;82.85
77110;BME280;66062;52.464;16.922;2024-01-30T04:38:15;102103.88;;;2.39;83.66
77110;BME280;66062;52.464;16.922;2024-01-30T04:40:40;102100.00;;;2.24;84.51
77110;BME280;66062;52.464;16.922;2024-01-30T04:43:06;102098.28;;;2.23;85.13
77110;BME280;66062;52.464;16.922;2024-01-30T04:45:31;102107.63;;;2.33;84.46
77110;BME280;66062;52.464;16.922;2024-01-30T04:47:57;102102.78;;;2.20;85.47
77110;BME280;66062;52.464;16.922;2024-01-30T04:50:23;102102.84;;;2.18;84.95
77110;BME280;66062;52.464;16.922;2024-01-30T04:52:49;102100.41;;;2.12;85.84
77110;BME280;66062;52.464;16.922;2024-01-30T04:55:14;102102.97;;;2.13;85.59
77110;BME280;66062;52.464;16.922;2024-01-30T04:57:40;102096.09;;;2.09;85.57
77110;BME280;66062;52.464;16.922;2024-01-30T05:00:06;102101.34;;;2.09;85.89
77110;BME280;66062;52.464;16.922;2024-01-30T05:02:32;102094.34;;;2.08;86.01
77110;BME280;66062;52.464;16.922;2024-01-30T05:04:57;102098.69;;;2.11;85.96
77110;BME280;66062;52.464;16.922;2024-01-30T05:07:24;102103.38;;;2.01;86.05
77110;BME280;66062;52.464;16.922;2024-01-30T05:09:50;102101.09;;;1.91;86.84
77110;BME280;66062;52.464;16.922;2024-01-30T05:12:15;102096.44;;;1.99;87.14
77110;BME280;66062;52.464;16.922;2024-01-30T05:14:41;102103.59;;;1.94;86.80
77110;BME280;66062;52.464;16.922;2024-01-30T05:17:06;102104.31;;;1.99;86.69
77110;BME280;66062;52.464;16.922;2024-01-30T05:19:34;102106.59;;;2.11;86.19
77110;BME280;66062;52.464;16.922;2024-01-30T05:22:00;102097.94;;;2.07;86.48
77110;BME280;66062;52.464;16.922;2024-01-30T05:24:25;102105.53;;;2.17;86.22
77110;BME280;66062;52.464;16.922;2024-01-30T05:26:51;102109.03;;;2.17;85.99
77110;BME280;66062;52.464;16.922;2024-01-30T05:29:16;102114.38;;;2.14;85.90
77110;BME280;66062;52.464;16.922;2024-01-30T05:31:42;102108.91;;;2.20;85.57
77110;BME280;66062;52.464;16.922;2024-01-30T05:34:07;102107.41;;;2.13;85.38
77110;BME280;66062;52.464;16.922;2024-01-30T05:36:34;102112.16;;;2.02;86.18
77110;BME280;66062;52.464;16.922;2024-01-30T05:38:59;102104.13;;;2.05;86.05
77110;BME280;66062;52.464;16.922;2024-01-30T05:41:25;102096.72;;;1.90;86.81
77110;BME280;66062;52.464;16.922;2024-01-30T05:43:50;102111.94;;;1.80;87.08
77110;BME280;66062;52.464;16.922;2024-01-30T05:46:16;102108.56;;;1.77;87.71
77110;BME280;66062;52.464;16.922;2024-01-30T05:48:41;102110.31;;;2.04;86.50
77110;BME280;66062;52.464;16.922;2024-01-30T05:51:07;102108.53;;;2.04;86.03
77110;BME280;66062;52.464;16.922;2024-01-30T05:53:33;102116.22;;;2.12;85.67
77110;BME280;66062;52.464;16.922;2024-01-30T05:56:01;102114.31;;;2.15;85.42
77110;BME280;66062;52.464;16.922;2024-01-30T05:58:26;102113.56;;;2.12;85.23
77110;BME280;66062;52.464;16.922;2024-01-30T06:00:52;102111.44;;;1.97;86.36
77110;BME280;66062;52.464;16.922;2024-01-30T06:03:17;102108.47;;;2.07;85.75
77110;BME280;66062;52.464;16.922;2024-01-30T06:05:43;102110.16;;;2.08;86.06
77110;BME280;66062;52.464;16.922;2024-01-30T06:08:08;102107.97;;;2.23;85.09
77110;BME280;66062;52.464;16.922;2024-01-30T06:10:34;102109.88;;;2.18;85.34
77110;BME280;66062;52.464;16.922;2024-01-30T06:12:59;102103.75;;;2.17;85.22
77110;BME280;66062;52.464;16.922;2024-01-30T06:15:25;102111.84;;;2.11;85.49
77110;BME280;66062;52.464;16.922;2024-01-30T06:17:51;102107.81;;;2.27;84.64
77110;BME280;66062;52.464;16.922;2024-01-30T06:20:16;102105.94;;;2.31;84.25
77110;BME280;66062;52.464;16.922;2024-01-30T06:22:42;102102.25;;;2.08;85.84
77110;BME280;66062;52.464;16.922;2024-01-30T06:25:07;102103.56;;;2.23;84.55
77110;BME280;66062;52.464;16.922;2024-01-30T06:27:33;102105.06;;;2.30;84.17
77110;BME280;66062;52.464;16.922;2024-01-30T06:29:58;102103.88;;;2.39;83.65
77110;BME280;66062;52.464;16.922;2024-01-30T06:32:23;102106.69;;;2.34;83.60
77110;BME280;66062;52.464;16.922;2024-01-30T06:34:49;102109.88;;;2.44;83.54
77110;BME280;66062;52.464;16.922;2024-01-30T06:37:15;102109.94;;;2.42;83.34
77110;BME280;66062;52.464;16.922;2024-01-30T06:39:40;102102.47;;;2.55;82.43
77110;BME280;66062;52.464;16.922;2024-01-30T06:42:06;102093.50;;;2.61;82.07
77110;BME280;66062;52.464;16.922;2024-01-30T06:44:31;102095.91;;;2.67;82.01
77110;BME280;66062;52.464;16.922;2024-01-30T06:46:57;102096.78;;;2.67;81.59
77110;BME280;66062;52.464;16.922;2024-01-30T06:49:22;102094.97;;;2.69;81.40
77110;BME280;66062;52.464;16.922;2024-01-30T06:51:47;102094.81;;;2.74;81.74
77110;BME280;66062;52.464;16.922;2024-01-30T06:54:13;102093.69;;;2.54;82.31
77110;BME280;66062;52.464;16.922;2024-01-30T06:56:39;102099.25;;;2.72;82.13
77110;BME280;66062;52.464;16.922;2024-01-30T06:59:04;102103.13;;;2.62;82.68
77110;BME280;66062;52.464;16.922;2024-01-30T07:01:30;102101.19;;;2.67;82.45
77110;BME280;66062;52.464;16.922;2024-01-30T07:03:56;102101.91;;;2.72;82.38
77110;BME280;66062;52.464;16.922;2024-01-30T07:06:22;102094.56;;;2.55;82.94
77110;BME280;66062;52.464;16.922;2024-01-30T07:08:49;102109.31;;;2.61;82.73
77110;BME280;66062;52.464;16.922;2024-01-30T07:11:21;102107.50;;;2.63;82.10
77110;BME280;66062;52.464;16.922;2024-01-30T07:13:51;102098.44;;;2.70;82.38
77110;BME280;66062;52.464;16.922;2024-01-30T07:16:16;102104.31;;;2.78;82.02
77110;BME280;66062;52.464;16.922;2024-01-30T07:18:43;102101.56;;;2.81;81.66
77110;BME280;66062;52.464;16.922;2024-01-30T07:21:08;102104.13;;;2.84;81.79
77110;BME280;66062;52.464;16.922;2024-01-30T07:23:34;102105.44;;;2.95;81.19
77110;BME280;66062;52.464;16.922;2024-01-30T07:26:01;102108.06;;;2.95;80.95
77110;BME280;66062;52.464;16.922;2024-01-30T07:28:26;102115.34;;;3.14;80.30
77110;BME280;66062;52.464;16.922;2024-01-30T07:30:52;102118.66;;;3.19;79.97
77110;BME280;66062;52.464;16.922;2024-01-30T07:33:17;102112.22;;;2.78;82.16
77110;BME280;66062;52.464;16.922;2024-01-30T07:35:43;102117.53;;;3.01;81.36
77110;BME280;66062;52.464;16.922;2024-01-30T07:38:09;102110.94;;;3.14;80.39
77110;BME280;66062;52.464;16.922;2024-01-30T07:40:34;102120.28;;;3.23;79.73
77110;BME280;66062;52.464;16.922;2024-01-30T07:43:00;102115.72;;;3.26;79.33
77110;BME280;66062;52.464;16.922;2024-01-30T07:45:26;102117.06;;;3.15;79.42
77110;BME280;66062;52.464;16.922;2024-01-30T07:47:52;102113.91;;;3.52;78.69
77110;BME280;66062;52.464;16.922;2024-01-30T07:50:18;102106.78;;;3.30;78.60
77110;BME280;66062;52.464;16.922;2024-01-30T07:52:44;102108.16;;;3.40;79.42
77110;BME280;66062;52.464;16.922;2024-01-30T07:55:10;102105.91;;;3.98;77.02
77110;BME280;66062;52.464;16.922;2024-01-30T07:57:38;102104.06;;;3.78;77.09
77110;BME280;66062;52.464;16.922;2024-01-30T08:00:04;102107.34;;;3.85;77.42
77110;BME280;66062;52.464;16.922;2024-01-30T08:02:31;102112.44;;;3.90;77.31
77110;BME280;66062;52.464;16.922;2024-01-30T08:04:56;102111.72;;;4.50;73.99
77110;BME280;66062;52.464;16.922;2024-01-30T08:07:21;102111.53;;;4.54;74.06
77110;BME280;66062;52.464;16.922;2024-01-30T08:09:47;102111.06;;;5.05;71.54
77110;BME280;66062;52.464;16.922;2024-01-30T08:12:13;102112.34;;;5.36;70.22
77110;BME280;66062;52.464;16.922;2024-01-30T08:14:39;102104.06;;;5.43;68.78
77110;BME280;66062;52.464;16.922;2024-01-30T08:17:06;102111.13;;;5.62;68.26
77110;BME280;66062;52.464;16.922;2024-01-30T08:19:34;102105.47;;;5.69;68.44
77110;BME280;66062;52.464;16.922;2024-01-30T08:21:59;102110.78;;;6.07;66.87
77110;BME280;66062;52.464;16.922;2024-01-30T08:24:25;102109.88;;;6.25;65.90
77110;BME280;66062;52.464;16.922;2024-01-30T08:26:50;102106.47;;;6.57;64.72
77110;BME280;66062;52.464;16.922;2024-01-30T08:29:16;102102.03;;;6.05;65.80
77110;BME280;66062;52.464;16.922;2024-01-30T08:31:41;102105.63;;;6.04;66.53
77110;BME280;66062;52.464;16.922;2024-01-30T08:34:07;102106.44;;;6.23;64.03
77110;BME280;66062;52.464;16.922;2024-01-30T08:36:32;102097.75;;;5.83;66.21
77110;BME280;66062;52.464;16.922;2024-01-30T08:38:58;102096.19;;;5.98;65.33
77110;BME280;66062;52.464;16.922;2024-01-30T08:41:23;102096.34;;;6.48;64.12
77110;BME280;66062;52.464;16.922;2024-01-30T08:43:49;102094.69;;;6.28;64.44
77110;BME280;66062;52.464;16.922;2024-01-30T08:46:17;102084.09;;;6.63;63.73
77110;BME280;66062;52.464;16.922;2024-01-30T08:48:43;102097.75;;;5.83;65.98
77110;BME280;66062;52.464;16.922;2024-01-30T08:51:09;102100.69;;;6.66;64.35
77110;BME280;66062;52.464;16.922;2024-01-30T08:53:35;102087.97;;;6.90;61.77
77110;BME280;66062;52.464;16.922;2024-01-30T08:56:02;102095.88;;;6.57;62.41
77110;BME280;66062;52.464;16.922;2024-01-30T08:58:27;102094.84;;;6.77;62.67
77110;BME280;66062;52.464;16.922;2024-01-30T09:00:53;102097.25;;;6.30;62.96
77110;BME280;66062;52.464;16.922;2024-01-30T09:03:18;102105.22;;;6.81;62.34
77110;BME280;66062;52.464;16.922;2024-01-30T09:05:44;102093.66;;;7.00;61.77
77110;BME280;66062;52.464;16.922;2024-01-30T09:08:09;102100.09;;;7.11;62.02
77110;BME280;66062;52.464;16.922;2024-01-30T09:10:35;102093.09;;;7.74;58.60
77110;BME280;66062;52.464;16.922;2024-01-30T09:13:00;102092.16;;;7.91;57.90
77110;BME280;66062;52.464;16.922;2024-01-30T09:15:26;102090.28;;;7.46;59.78
77110;BME280;66062;52.464;16.922;2024-01-30T09:17:51;102093.53;;;7.67;58.41
77110;BME280;66062;52.464;16.922;2024-01-30T09:20:17;102086.50;;;7.97;58.13
77110;BME280;66062;52.464;16.922;2024-01-30T09:22:42;102086.97;;;7.25;58.83
77110;BME280;66062;52.464;16.922;2024-01-30T09:25:08;102086.19;;;6.91;61.64
77110;BME280;66062;52.464;16.922;2024-01-30T09:27:34;102082.22;;;7.63;58.42
77110;BME280;66062;52.464;16.922;2024-01-30T09:29:59;102077.34;;;7.71;59.03
77110;BME280;66062;52.464;16.922;2024-01-30T09:32:25;102071.84;;;8.06;58.52
77110;BME280;66062;52.464;16.922;2024-01-30T09:34:50;102074.75;;;8.33;56.62
77110;BME280;66062;52.464;16.922;2024-01-30T09:37:15;102077.09;;;8.53;55.30
77110;BME280;66062;52.464;16.922;2024-01-30T09:39:43;102067.41;;;8.66;55.46
77110;BME280;66062;52.464;16.922;2024-01-30T09:42:33;102059.25;;;9.40;52.75
77110;BME280;66062;52.464;16.922;2024-01-30T09:45:03;102057.00;;;9.89;51.95
77110;BME280;66062;52.464;16.922;2024-01-30T09:47:51;102057.50;;;9.67;51.92
77110;BME280;66062;52.464;16.922;2024-01-30T09:50:17;102051.94;;;10.11;50.89
77110;BME280;66062;52.464;16.922;2024-01-30T09:52:48;102050.88;;;9.87;50.59
77110;BME280;66062;52.464;16.922;2024-01-30T09:55:15;102051.19;;;10.09;51.13
77110;BME280;66062;52.464;16.922;2024-01-30T09:57:41;102045.81;;;9.70;51.83
77110;BME280;66062;52.464;16.922;2024-01-30T10:00:07;102059.66;;;9.89;50.49
77110;BME280;66062;52.464;16.922;2024-01-30T10:02:34;102047.75;;;9.54;52.84
77110;BME280;66062;52.464;16.922;2024-01-30T10:05:00;102045.75;;;9.84;52.37
77110;BME280;66062;52.464;16.922;2024-01-30T10:07:26;102040.31;;;11.40;48.09
77110;BME280;66062;52.464;16.922;2024-01-30T10:09:53;102030.28;;;11.19;47.84
77110;BME280;66062;52.464;16.922;2024-01-30T10:12:23;102036.38;;;11.33;46.53
77110;BME280;66062;52.464;16.922;2024-01-30T10:14:50;102037.13;;;11.23;47.89
77110;BME280;66062;52.464;16.922;2024-01-30T10:17:16;102033.16;;;12.14;46.14
77110;BME280;66062;52.464;16.922;2024-01-30T10:19:41;102034.31;;;12.10;45.40
77110;BME280;66062;52.464;16.922;2024-01-30T10:22:07;102027.94;;;11.99;45.04
77110;BME280;66062;52.464;16.922;2024-01-30T10:24:34;102022.63;;;13.69;41.95
77110;BME280;66062;52.464;16.922;2024-01-30T10:27:00;102012.56;;;13.40;42.28
77110;BME280;66062;52.464;16.922;2024-01-30T10:29:27;102017.75;;;11.81;45.84
77110;BME280;66062;52.464;16.922;2024-01-30T10:31:59;102025.25;;;13.15;43.01
77110;BME280;66062;52.464;16.922;2024-01-30T10:34:25;102019.03;;;12.58;43.19
77110;BME280;66062;52.464;16.922;2024-01-30T10:36:59;102005.56;;;14.55;39.85
77110;BME280;66062;52.464;16.922;2024-01-30T10:39:30;102014.13;;;11.69;45.78
77110;BME280;66062;52.464;16.922;2024-01-30T10:42:00;102001.94;;;13.38;41.70
77110;BME280;66062;52.464;16.922;2024-01-30T10:44:30;102003.25;;;15.72;38.54
77110;BME280;66062;52.464;16.922;2024-01-30T10:47:03;102000.59;;;15.02;38.18
77110;BME280;66062;52.464;16.922;2024-01-30T10:49:31;102009.69;;;14.59;38.26
77110;BME280;66062;52.464;16.922;2024-01-30T10:51:58;102002.69;;;12.04;42.48
77110;BME280;66062;52.464;16.922;2024-01-30T10:54:24;102002.19;;;13.24;41.44
77110;BME280;66062;52.464;16.922;2024-01-30T10:56:52;102002.63;;;12.73;42.57
77110;BME280;66062;52.464;16.922;2024-01-30T10:59:19;101998.69;;;13.78;41.21
77110;BME280;66062;52.464;16.922;2024-01-30T11:01:46;101985.31;;;14.51;38.88
77110;BME280;66062;52.464;16.922;2024-01-30T11:04:12;101979.28;;;14.59;39.16
77110;BME280;66062;52.464;16.922;2024-01-30T11:06:42;101981.53;;;14.84;38.63
77110;BME280;66062;52.464;16.922;2024-01-30T11:09:11;101976.88;;;15.16;37.68
77110;BME280;66062;52.464;16.922;2024-01-30T11:11:59;101981.03;;;14.99;38.47
77110;BME280;66062;52.464;16.922;2024-01-30T11:14:32;101972.09;;;15.29;38.11
77110;BME280;66062;52.464;16.922;2024-01-30T11:16:58;101965.19;;;14.96;37.98
77110;BME280;66062;52.464;16.922;2024-01-30T11:19:26;101985.81;;;11.30;45.55
77110;BME280;66062;52.464;16.922;2024-01-30T11:21:54;101980.47;;;13.49;41.66
77110;BME280;66062;52.464;16.922;2024-01-30T11:24:25;101975.16;;;13.81;40.50
77110;BME280;66062;52.464;16.922;2024-01-30T11:27:04;101975.72;;;11.70;45.11
77110;BME280;66062;52.464;16.922;2024-01-30T11:29:50;101966.84;;;13.08;42.23
77110;BME280;66062;52.464;16.922;2024-01-30T11:32:22;101976.84;;;11.91;44.12
77110;BME280;66062;52.464;16.922;2024-01-30T11:34:49;101967.72;;;11.94;44.25
77110;BME280;66062;52.464;16.922;2024-01-30T11:37:15;101965.84;;;12.86;43.22
77110;BME280;66062;52.464;16.922;2024-01-30T11:39:43;101959.88;;;12.61;43.84
77110;BME280;66062;52.464;16.922;2024-01-30T11:42:10;101951.75;;;13.29;41.89
77110;BME280;66062;52.464;16.922;2024-01-30T11:44:36;101944.91;;;12.58;43.62
77110;BME280;66062;52.464;16.922;2024-01-30T11:47:02;101940.53;;;13.35;42.18
77110;BME280;66062;52.464;16.922;2024-01-30T11:49:28;101943.69;;;13.72;41.53
77110;BME280;66062;52.464;16.922;2024-01-30T11:51:54;101931.34;;;13.49;41.17
77110;BME280;66062;52.464;16.922;2024-01-30T11:54:20;101936.19;;;13.55;41.92
77110;BME280;66062;52.464;16.922;2024-01-30T11:56:45;101933.59;;;14.17;40.48
77110;BME280;66062;52.464;16.922;2024-01-30T11:59:11;101934.88;;;14.02;40.52
77110;BME280;66062;52.464;16.922;2024-01-30T12:01:36;101932.44;;;14.10;40.63
77110;BME280;66062;52.464;16.922;2024-01-30T12:04:02;101932.66;;;14.07;40.60
77110;BME280;66062;52.464;16.922;2024-01-30T12:06:28;101928.84;;;14.41;40.09
77110;BME280;66062;52.464;16.922;2024-01-30T12:09:03;101932.38;;;13.68;41.62
77110;BME280;66062;52.464;16.922;2024-01-30T12:11:48;101924.94;;;13.29;42.51
77110;BME280;66062;52.464;16.922;2024-01-30T12:14:14;101928.84;;;13.25;43.05
77110;BME280;66062;52.464;16.922;2024-01-30T12:16:40;101914.88;;;13.42;41.77
77110;BME280;66062;52.464;16.922;2024-01-30T12:19:06;101913.38;;;12.05;44.74
77110;BME280;66062;52.464;16.922;2024-01-30T12:21:33;101914.31;;;13.27;42.72
77110;BME280;66062;52.464;16.922;2024-01-30T12:23:59;101915.25;;;13.49;42.32
77110;BME280;66062;52.464;16.922;2024-01-30T12:26:25;101927.13;;;12.00;44.37
77110;BME280;66062;52.464;16.922;2024-01-30T12:28:54;101924.91;;;11.94;45.31
77110;BME280;66062;52.464;16.922;2024-01-30T12:31:32;101923.41;;;12.25;44.94
77110;BME280;66062;52.464;16.922;2024-01-30T12:33:59;101911.88;;;11.89;45.94
77110;BME280;66062;52.464;16.922;2024-01-30T12:36:25;101907.06;;;11.47;47.16
77110;BME280;66062;52.464;16.922;2024-01-30T12:38:51;101902.66;;;11.70;46.91
77110;BME280;66062;52.464;16.922;2024-01-30T12:41:17;101895.00;;;12.79;44.16
77110;BME280;66062;52.464;16.922;2024-01-30T12:43:42;101890.38;;;13.47;42.29